Time;durP1;ratioP1;P1;durP2;ratioP2;P2;SDS_P1;SDS_P2;PMS_P1;PMS_P2;Temp;Humidity;BMP_temperature;BMP_pressure;BME280_temperature;BME280_humidity;BME280_pressure;Samples;Min_cycle;Max_cycle;Signal;HPM_P1;HPM_P2
2021/05/11 00:01:53;;;;;;;;;;;18.00;46.90;;;;;;483887;246;1132;-46
2021/05/11 00:03:54;;;;;;;;;;;18.00;47.00;;;;;;484029;246;1046;-46
2021/05/11 00:05:55;;;;;;;;;;;18.00;47.10;;;;;;484385;246;1221;-46
2021/05/11 00:07:57;;;;;;;;;;;18.00;47.10;;;;;;484005;246;1252;-46
2021/05/11 00:09:58;;;;;;;;;;;17.90;47.30;;;;;;484317;246;1070;-46
2021/05/11 00:11:59;;;;;;;;;;;17.90;47.30;;;;;;483918;246;2192;-46
2021/05/11 00:14:00;;;;;;;;;;;17.80;47.30;;;;;;484593;246;1024;-46
2021/05/11 00:16:02;;;;;;;;;;;17.80;47.50;;;;;;484463;246;1180;-46
2021/05/11 00:18:03;;;;;;;;;;;17.80;47.40;;;;;;484477;246;1304;-46
2021/05/11 00:20:04;;;;;;;;;;;17.80;47.50;;;;;;484072;246;1068;-46
2021/05/11 00:22:06;;;;;;;;;;;17.80;47.60;;;;;;484290;246;1524;-46
2021/05/11 00:24:07;;;;;;;;;;;17.80;47.50;;;;;;484315;246;1054;-46
2021/05/11 00:26:08;;;;;;;;;;;17.80;47.60;;;;;;483983;243;1349;-46
2021/05/11 00:28:10;;;;;;;;;;;17.70;47.60;;;;;;484063;246;1208;-46
2021/05/11 00:30:11;;;;;;;;;;;17.80;47.50;;;;;;484419;246;1185;-46
2021/05/11 00:32:12;;;;;;;;;;;17.70;47.60;;;;;;484077;246;2188;-46
2021/05/11 00:34:13;;;;;;;;;;;17.80;47.60;;;;;;484051;246;1082;-46
2021/05/11 00:36:15;;;;;;;;;;;17.70;47.70;;;;;;484207;246;1147;-46
2021/05/11 00:38:16;;;;;;;;;;;17.70;47.70;;;;;;484334;246;1050;-46
2021/05/11 00:40:17;;;;;;;;;;;17.70;47.80;;;;;;484061;246;1068;-46
2021/05/11 00:42:19;;;;;;;;;;;17.70;47.60;;;;;;484172;246;1141;-46
2021/05/11 00:44:20;;;;;;;;;;;17.70;47.70;;;;;;484064;246;1217;-46
2021/05/11 00:46:21;;;;;;;;;;;17.70;47.70;;;;;;483875;246;1376;-46
2021/05/11 00:48:22;;;;;;;;;;;17.70;47.80;;;;;;484073;246;1271;-46
2021/05/11 00:50:24;;;;;;;;;;;17.60;47.80;;;;;;484076;246;1353;-46
2021/05/11 00:52:25;;;;;;;;;;;17.70;47.70;;;;;;483850;246;2153;-46
2021/05/11 00:54:27;;;;;;;;;;;17.60;47.80;;;;;;484037;246;1080;-46
2021/05/11 00:56:28;;;;;;;;;;;17.60;47.90;;;;;;484214;246;1220;-46
2021/05/11 00:58:29;;;;;;;;;;;17.60;48.00;;;;;;484320;246;1147;-46
2021/05/11 01:00:31;;;;;;;;;;;17.60;47.90;;;;;;484038;246;1111;-46
2021/05/11 01:02:32;;;;;;;;;;;17.60;47.80;;;;;;484165;246;1141;-45
2021/05/11 01:04:33;;;;;;;;;;;17.70;47.80;;;;;;484383;246;1087;-46
2021/05/11 01:06:34;;;;;;;;;;;17.60;47.70;;;;;;484058;246;1316;-46
2021/05/11 01:08:36;;;;;;;;;;;17.70;47.80;;;;;;484060;246;1114;-46
2021/05/11 01:10:37;;;;;;;;;;;17.60;47.80;;;;;;484517;246;1124;-46
2021/05/11 01:12:38;;;;;;;;;;;17.60;47.90;;;;;;484033;246;2129;-46
2021/05/11 01:14:40;;;;;;;;;;;17.60;47.90;;;;;;484090;246;1395;-46
2021/05/11 01:16:43;;;;;;;;;;;17.60;47.90;;;;;;484047;246;1635;-46
2021/05/11 01:18:42;;;;;;;;;;;17.60;47.80;;;;;;483935;246;2238;-46
2021/05/11 01:20:47;;;;;;;;;;;17.60;47.80;;;;;;483931;246;1247;-46
2021/05/11 01:23:02;;;;;;;;;;;17.60;47.80;;;;;;483679;246;1781;-45
2021/05/11 01:24:53;;;;;;;;;;;17.60;47.80;;;;;;482914;246;2087;-46
2021/05/11 01:26:54;;;;;;;;;;;17.50;48.00;;;;;;483663;246;1806;-46
2021/05/11 01:29:01;;;;;;;;;;;17.50;48.00;;;;;;483853;246;2276;-46
2021/05/11 01:46:02;;;;;;;;;;;17.40;48.00;;;;;;484091;246;1205;-46
2021/05/11 01:50:20;;;;;;;;;;;17.50;48.10;;;;;;482427;246;1514;-47
2021/05/11 01:52:32;;;;;;;;;;;17.50;48.00;;;;;;483670;246;2184;-46
2021/05/11 01:54:42;;;;;;;;;;;17.50;48.00;;;;;;483868;246;2080;-46
2021/05/11 01:59:29;;;;;;;;;;;17.50;48.00;;;;;;472083;246;1220;-46
2021/05/11 02:11:09;;;;;;;;;;;17.70;47.40;;;;;;484229;246;1347;-46
2021/05/11 02:24:34;;;;;;;;;;;19.20;43.90;;;;;;484054;246;1075;-46
2021/05/11 02:26:35;;;;;;;;;;;19.30;43.70;;;;;;484333;246;1239;-46
2021/05/11 02:28:36;;;;;;;;;;;19.30;43.50;;;;;;484074;246;1163;-46
2021/05/11 02:30:38;;;;;;;;;;;19.40;43.40;;;;;;484503;246;1177;-46
2021/05/11 02:32:39;;;;;;;;;;;19.50;43.20;;;;;;484013;246;2249;-46
2021/05/11 02:34:40;;;;;;;;;;;19.50;43.10;;;;;;484094;246;1041;-46
2021/05/11 02:36:41;;;;;;;;;;;19.50;43.10;;;;;;484016;246;1105;-46
2021/05/11 02:38:45;;;;;;;;;;;19.60;43.00;;;;;;484346;246;1048;-46
2021/05/11 02:40:46;;;;;;;;;;;19.60;42.80;;;;;;484013;246;1320;-46
2021/05/11 02:42:50;;;;;;;;;;;19.70;42.80;;;;;;484032;246;1228;-46
2021/05/11 02:44:49;;;;;;;;;;;19.70;42.70;;;;;;483883;246;1438;-46
2021/05/11 02:46:50;;;;;;;;;;;19.70;42.70;;;;;;484105;246;1219;-46
2021/05/11 02:48:51;;;;;;;;;;;19.80;42.70;;;;;;484018;246;1059;-46
2021/05/11 02:50:53;;;;;;;;;;;19.80;42.60;;;;;;484467;246;1203;-46
2021/05/11 02:52:54;;;;;;;;;;;19.80;42.60;;;;;;484314;246;2200;-46
2021/05/11 02:54:55;;;;;;;;;;;19.80;42.50;;;;;;484012;246;1072;-46
2021/05/11 02:56:57;;;;;;;;;;;19.90;42.40;;;;;;484188;246;1165;-44
2021/05/11 02:58:58;;;;;;;;;;;19.90;42.30;;;;;;484493;246;1342;-44
2021/05/11 03:01:00;;;;;;;;;;;20.00;42.30;;;;;;484376;246;1185;-46
2021/05/11 03:03:01;;;;;;;;;;;20.00;42.30;;;;;;484520;246;1081;-46
2021/05/11 03:05:02;;;;;;;;;;;20.00;42.30;;;;;;484585;246;990;-46
2021/05/11 03:07:04;;;;;;;;;;;20.00;42.20;;;;;;484223;246;1302;-46
2021/05/11 03:09:05;;;;;;;;;;;20.00;42.10;;;;;;484477;246;1075;-46
2021/05/11 03:11:06;;;;;;;;;;;20.10;42.20;;;;;;483980;246;1405;-46
2021/05/11 03:13:08;;;;;;;;;;;20.10;42.10;;;;;;484441;246;2200;-46
2021/05/11 03:15:09;;;;;;;;;;;20.10;42.10;;;;;;484172;246;1246;-46
2021/05/11 03:17:10;;;;;;;;;;;20.10;42.10;;;;;;484024;246;1326;-46
2021/05/11 03:19:11;;;;;;;;;;;20.10;42.00;;;;;;484549;246;1084;-46
2021/05/11 03:21:13;;;;;;;;;;;20.10;41.90;;;;;;484236;246;1191;-46
2021/05/11 03:23:14;;;;;;;;;;;20.20;42.00;;;;;;484525;246;1056;-46
2021/05/11 03:25:15;;;;;;;;;;;20.20;41.90;;;;;;484531;246;1104;-46
2021/05/11 03:27:16;;;;;;;;;;;20.20;41.90;;;;;;484157;246;1541;-46
2021/05/11 03:29:18;;;;;;;;;;;20.20;41.90;;;;;;484328;246;1172;-46
2021/05/11 03:31:20;;;;;;;;;;;20.30;41.90;;;;;;484054;246;1302;-46
2021/05/11 03:33:20;;;;;;;;;;;20.30;41.90;;;;;;483992;246;2452;-46
2021/05/11 03:35:22;;;;;;;;;;;20.30;41.90;;;;;;484486;246;1091;-46
2021/05/11 03:37:23;;;;;;;;;;;20.30;41.80;;;;;;484106;246;1676;-46
2021/05/11 03:39:24;;;;;;;;;;;20.30;41.70;;;;;;484468;246;1107;-46
2021/05/11 03:41:28;;;;;;;;;;;20.40;41.70;;;;;;484227;246;1099;-46
2021/05/11 03:43:30;;;;;;;;;;;20.40;41.70;;;;;;484255;246;1659;-46
2021/05/11 03:45:33;;;;;;;;;;;20.40;41.60;;;;;;483983;246;2158;-46
2021/05/11 03:47:38;;;;;;;;;;;20.40;41.60;;;;;;483885;246;2058;-46
2021/05/11 03:49:35;;;;;;;;;;;20.40;41.60;;;;;;484187;246;2105;-46
2021/05/11 03:51:36;;;;;;;;;;;20.40;41.50;;;;;;484419;246;1172;-46
2021/05/11 03:53:37;;;;;;;;;;;20.40;41.70;;;;;;484354;246;2136;-46
2021/05/11 03:55:39;;;;;;;;;;;20.50;41.50;;;;;;484028;246;1341;-46
2021/05/11 03:57:40;;;;;;;;;;;20.30;41.90;;;;;;484312;245;1291;-46
2021/05/11 03:59:41;;;;;;;;;;;19.80;42.90;;;;;;484454;243;1271;-46
2021/05/11 04:01:42;;;;;;;;;;;19.40;43.90;;;;;;483899;246;1202;-46
2021/05/11 04:03:44;;;;;;;;;;;19.10;44.70;;;;;;484125;246;1072;-46
2021/05/11 04:05:45;;;;;;;;;;;19.00;45.10;;;;;;484370;246;1055;-46
2021/05/11 04:07:48;;;;;;;;;;;18.80;45.50;;;;;;484014;246;1168;-46
2021/05/11 04:09:51;;;;;;;;;;;18.70;45.80;;;;;;484059;246;1995;-46
2021/05/11 04:12:04;;;;;;;;;;;18.60;45.90;;;;;;483787;246;1496;-46
2021/05/11 04:14:16;;;;;;;;;;;18.50;46.10;;;;;;483337;246;2141;-45
2021/05/11 04:16:20;;;;;;;;;;;18.40;46.40;;;;;;483531;246;1758;-46
2021/05/11 04:18:16;;;;;;;;;;;18.30;46.50;;;;;;483676;246;1507;-46
2021/05/11 04:20:17;;;;;;;;;;;18.30;46.60;;;;;;484155;246;1119;-46
2021/05/11 04:22:18;;;;;;;;;;;18.30;46.60;;;;;;484033;246;1587;-46
2021/05/11 04:24:23;;;;;;;;;;;18.20;46.80;;;;;;484055;246;1085;-46
2021/05/11 04:26:21;;;;;;;;;;;18.10;47.00;;;;;;483653;246;2053;-46
2021/05/11 04:28:22;;;;;;;;;;;18.20;46.90;;;;;;483922;246;1241;-46
2021/05/11 04:30:24;;;;;;;;;;;18.20;47.00;;;;;;484230;246;1174;-46
2021/05/11 04:32:25;;;;;;;;;;;18.10;47.10;;;;;;483913;246;1327;-46
2021/05/11 04:34:26;;;;;;;;;;;18.10;47.10;;;;;;484214;246;2137;-46
2021/05/11 04:36:27;;;;;;;;;;;18.10;47.10;;;;;;484100;246;1366;-46
2021/05/11 04:38:29;;;;;;;;;;;18.00;47.30;;;;;;484005;246;1080;-46
2021/05/11 04:40:30;;;;;;;;;;;18.00;47.50;;;;;;484457;246;1130;-46
2021/05/11 04:42:31;;;;;;;;;;;17.90;47.50;;;;;;484079;246;1139;-46
2021/05/11 04:44:33;;;;;;;;;;;17.90;47.50;;;;;;484433;246;1083;-46
2021/05/11 04:46:43;;;;;;;;;;;17.90;47.50;;;;;;484008;246;1271;-46
2021/05/11 04:48:42;;;;;;;;;;;17.90;47.40;;;;;;483612;246;2242;-46
2021/05/11 04:50:43;;;;;;;;;;;17.90;47.50;;;;;;483656;246;1206;-46
2021/05/11 04:52:44;;;;;;;;;;;17.80;47.70;;;;;;484270;245;2148;-46
2021/05/11 04:54:46;;;;;;;;;;;17.80;47.70;;;;;;483940;246;1081;-46
2021/05/11 04:56:47;;;;;;;;;;;17.80;47.90;;;;;;484078;246;1438;-46
2021/05/11 04:58:48;;;;;;;;;;;17.80;47.80;;;;;;483866;246;1114;-46
2021/05/11 05:00:50;;;;;;;;;;;17.80;47.70;;;;;;484246;246;1207;-46
2021/05/11 05:02:53;;;;;;;;;;;17.80;47.90;;;;;;483733;246;2225;-46
2021/05/11 05:05:11;;;;;;;;;;;17.70;48.00;;;;;;483790;246;2130;-46
2021/05/11 05:07:12;;;;;;;;;;;17.70;48.00;;;;;;483617;246;1244;-46
2021/05/11 05:09:13;;;;;;;;;;;17.70;48.00;;;;;;484283;246;2135;-46
2021/05/11 05:11:17;;;;;;;;;;;17.70;47.90;;;;;;483948;242;1322;-46
2021/05/11 05:13:16;;;;;;;;;;;17.70;47.90;;;;;;483969;246;2188;-46
2021/05/11 05:15:17;;;;;;;;;;;17.70;48.00;;;;;;483907;246;1210;-46
2021/05/11 05:17:19;;;;;;;;;;;17.70;48.00;;;;;;483855;246;1156;-46
2021/05/11 05:19:20;;;;;;;;;;;17.70;48.00;;;;;;483942;246;1093;-46
2021/05/11 05:21:22;;;;;;;;;;;17.60;48.10;;;;;;483638;246;1540;-46
2021/05/11 05:23:29;;;;;;;;;;;17.60;48.20;;;;;;483726;246;1175;-46
2021/05/11 05:25:27;;;;;;;;;;;17.70;48.20;;;;;;483225;246;1531;-46
2021/05/11 05:27:36;;;;;;;;;;;17.70;48.10;;;;;;483424;246;1423;-46
2021/05/11 05:29:27;;;;;;;;;;;17.60;48.20;;;;;;482843;246;1930;-46
2021/05/11 05:31:28;;;;;;;;;;;17.60;48.10;;;;;;483709;246;1317;-46
2021/05/11 05:33:29;;;;;;;;;;;17.70;48.10;;;;;;483853;246;2208;-46
2021/05/11 05:35:31;;;;;;;;;;;17.60;48.10;;;;;;483731;246;1083;-46
2021/05/11 05:37:32;;;;;;;;;;;17.70;48.10;;;;;;483870;246;1569;-46
2021/05/11 05:39:36;;;;;;;;;;;17.60;48.00;;;;;;483890;246;1131;-46
2021/05/11 05:41:36;;;;;;;;;;;17.60;48.20;;;;;;483403;246;2342;-46
2021/05/11 05:43:36;;;;;;;;;;;17.60;48.10;;;;;;483628;246;1271;-46
2021/05/11 05:45:37;;;;;;;;;;;17.60;48.10;;;;;;483667;246;1114;-46
2021/05/11 05:47:50;;;;;;;;;;;17.60;48.10;;;;;;483529;246;1157;-46
2021/05/11 05:49:43;;;;;;;;;;;17.60;48.10;;;;;;482917;246;2024;-46
2021/05/11 05:51:42;;;;;;;;;;;17.60;48.20;;;;;;483232;246;1802;-46
2021/05/11 05:53:43;;;;;;;;;;;17.60;48.10;;;;;;483780;246;2140;-46
2021/05/11 05:55:44;;;;;;;;;;;17.50;48.20;;;;;;483818;246;1186;-46
2021/05/11 05:57:45;;;;;;;;;;;17.50;48.20;;;;;;483641;246;1216;-46
2021/05/11 05:59:47;;;;;;;;;;;17.50;48.10;;;;;;483611;246;1094;-46
2021/05/11 06:01:49;;;;;;;;;;;17.60;48.10;;;;;;483733;246;1331;-46
2021/05/11 06:03:51;;;;;;;;;;;17.50;48.10;;;;;;483532;246;1433;-46
2021/05/11 06:05:52;;;;;;;;;;;17.50;48.20;;;;;;483491;246;2252;-46
2021/05/11 06:07:53;;;;;;;;;;;17.50;48.20;;;;;;483668;246;1180;-46
2021/05/11 06:09:54;;;;;;;;;;;17.50;48.30;;;;;;483734;246;1156;-46
2021/05/11 06:11:58;;;;;;;;;;;17.40;48.40;;;;;;483604;246;1181;-46
2021/05/11 06:14:08;;;;;;;;;;;17.50;48.50;;;;;;483552;246;2148;-46
2021/05/11 06:18:18;;;;;;;;;;;17.40;48.40;;;;;;483602;246;1201;-46
2021/05/11 06:20:19;;;;;;;;;;;17.40;48.40;;;;;;483771;246;1144;-46
2021/05/11 06:22:21;;;;;;;;;;;17.50;48.40;;;;;;483575;246;1217;-46
2021/05/11 06:24:22;;;;;;;;;;;17.50;48.40;;;;;;483670;246;1070;-46
2021/05/11 06:26:23;;;;;;;;;;;17.40;48.40;;;;;;483612;246;1124;-45
2021/05/11 06:28:25;;;;;;;;;;;17.40;48.50;;;;;;483597;246;1105;-46
2021/05/11 06:30:26;;;;;;;;;;;17.50;48.30;;;;;;483644;246;1136;-46
2021/05/11 06:32:28;;;;;;;;;;;17.80;47.60;;;;;;483781;246;1189;-46
2021/05/11 06:34:29;;;;;;;;;;;18.20;46.50;;;;;;483645;246;2180;-46
2021/05/11 06:36:30;;;;;;;;;;;18.50;45.70;;;;;;483550;246;1211;-46
2021/05/11 06:38:32;;;;;;;;;;;18.70;45.20;;;;;;483357;246;1133;-46
2021/05/11 06:40:36;;;;;;;;;;;18.90;44.80;;;;;;483433;246;1077;-46
2021/05/11 06:42:37;;;;;;;;;;;19.10;44.50;;;;;;483393;246;1570;-46
2021/05/11 06:44:44;;;;;;;;;;;19.20;44.20;;;;;;483172;246;1204;-46
2021/05/11 06:49:14;;;;;;;;;;;19.30;43.90;;;;;;479206;246;1270;-44
2021/05/11 06:53:28;;;;;;;;;;;19.40;43.60;;;;;;483270;246;2129;-44
2021/05/11 06:55:29;;;;;;;;;;;19.50;43.50;;;;;;483338;246;1104;-46
2021/05/11 06:57:30;;;;;;;;;;;19.60;43.40;;;;;;483382;246;1114;-46
2021/05/11 06:59:32;;;;;;;;;;;19.60;43.30;;;;;;483458;246;1130;-46
2021/05/11 07:01:33;;;;;;;;;;;19.60;43.20;;;;;;483559;246;1103;-46
2021/05/11 07:03:34;;;;;;;;;;;19.70;43.10;;;;;;483387;246;1234;-46
2021/05/11 07:05:36;;;;;;;;;;;19.70;43.00;;;;;;483262;246;1203;-46
2021/05/11 07:07:38;;;;;;;;;;;19.80;42.90;;;;;;483331;246;2300;-46
2021/05/11 07:09:51;;;;;;;;;;;19.80;42.90;;;;;;483111;246;2164;-46
2021/05/11 07:13:59;;;;;;;;;;;19.80;42.70;;;;;;483425;246;2140;-46
2021/05/11 07:16:00;;;;;;;;;;;19.90;42.70;;;;;;483340;246;1101;-46
2021/05/11 07:18:02;;;;;;;;;;;19.90;42.70;;;;;;483067;246;1140;-46
2021/05/11 07:20:03;;;;;;;;;;;19.90;42.60;;;;;;483075;246;1089;-46
2021/05/11 07:22:04;;;;;;;;;;;19.90;42.60;;;;;;483214;246;1106;-46
2021/05/11 07:24:06;;;;;;;;;;;20.00;42.50;;;;;;483471;246;1189;-46
2021/05/11 07:26:12;;;;;;;;;;;20.00;42.50;;;;;;483341;246;1179;-46
2021/05/11 07:28:34;;;;;;;;;;;20.00;42.50;;;;;;483122;246;2209;-46
2021/05/11 07:30:29;;;;;;;;;;;20.00;42.40;;;;;;482441;246;1929;-46
2021/05/11 07:32:28;;;;;;;;;;;20.10;42.50;;;;;;483201;246;2070;-45
2021/05/11 07:34:30;;;;;;;;;;;20.10;42.30;;;;;;483375;246;2188;-46
2021/05/11 07:36:33;;;;;;;;;;;20.10;42.30;;;;;;483381;246;1300;-46
2021/05/11 07:38:32;;;;;;;;;;;20.10;42.30;;;;;;483232;246;2106;-46
2021/05/11 07:40:36;;;;;;;;;;;20.10;42.30;;;;;;483317;246;1168;-46
2021/05/11 07:42:37;;;;;;;;;;;20.20;42.30;;;;;;483278;246;1225;-46
2021/05/11 07:44:41;;;;;;;;;;;20.20;42.20;;;;;;483415;246;1143;-46
2021/05/11 07:46:47;;;;;;;;;;;20.20;42.20;;;;;;483061;246;2070;-46
2021/05/11 07:48:57;;;;;;;;;;;20.20;42.20;;;;;;483169;246;2259;-46
2021/05/11 08:03:13;;;;;;;;;;;20.40;42.10;;;;;;483573;246;1236;-46
2021/05/11 08:05:13;;;;;;;;;;;20.40;42.00;;;;;;482551;246;2221;-44
2021/05/11 08:09:59;;;;;;;;;;;20.40;42.00;;;;;;483643;246;1079;-44
2021/05/11 08:16:45;;;;;;;;;;;20.50;41.90;;;;;;466193;246;1644;-44
2021/05/11 08:18:50;;;;;;;;;;;20.40;41.80;;;;;;483599;246;1138;-43
2021/05/11 08:27:56;;;;;;;;;;;20.00;42.90;;;;;;482672;246;1408;-45
2021/05/11 08:29:57;;;;;;;;;;;19.40;44.10;;;;;;483151;246;2207;-46
2021/05/11 08:31:58;;;;;;;;;;;19.10;44.90;;;;;;482712;246;1203;-46
2021/05/11 08:34:00;;;;;;;;;;;18.90;45.40;;;;;;483398;246;2196;-46
2021/05/11 08:36:01;;;;;;;;;;;18.70;45.80;;;;;;483853;245;1236;-46
2021/05/11 08:38:02;;;;;;;;;;;18.60;46.20;;;;;;483815;246;972;-46
2021/05/11 08:40:03;;;;;;;;;;;18.50;46.40;;;;;;483290;246;1334;-46
2021/05/11 08:42:05;;;;;;;;;;;18.40;46.80;;;;;;483062;246;1352;-46
2021/05/11 08:44:08;;;;;;;;;;;18.30;46.90;;;;;;483297;246;1105;-46
2021/05/11 08:46:08;;;;;;;;;;;18.30;47.00;;;;;;483157;246;1789;-46
2021/05/11 08:48:11;;;;;;;;;;;18.20;47.10;;;;;;483187;246;1374;-46
2021/05/11 08:50:11;;;;;;;;;;;18.20;47.20;;;;;;483372;246;1525;-46
2021/05/11 08:52:19;;;;;;;;;;;18.10;47.30;;;;;;482965;246;937;-46
2021/05/11 08:54:29;;;;;;;;;;;18.10;47.40;;;;;;482660;246;2188;-45
2021/05/11 09:08:12;;;;;;;;;;;18.10;47.50;;;;;;483043;246;1351;-46
2021/05/11 09:15:44;;;;;;;;;;;17.90;47.90;;;;;;483293;246;2153;-46
2021/05/11 09:27:02;;;;;;;;;;;17.80;48.10;;;;;;483228;246;1477;-46
2021/05/11 09:29:04;;;;;;;;;;;17.80;48.10;;;;;;483191;246;1748;-46
2021/05/11 09:31:11;;;;;;;;;;;17.80;48.00;;;;;;483024;246;2137;-46
2021/05/11 09:33:20;;;;;;;;;;;17.90;48.00;;;;;;482973;246;1946;-46
2021/05/11 09:54:31;;;;;;;;;;;17.70;48.30;;;;;;483201;246;2195;-46
2021/05/11 09:59:19;;;;;;;;;;;17.70;48.00;;;;;;483088;246;1654;-46
2021/05/11 10:10:16;;;;;;;;;;;17.80;48.10;;;;;;481833;246;1436;-46
2021/05/11 10:27:23;;;;;;;;;;;17.70;48.20;;;;;;483184;246;1148;-46
2021/05/11 10:31:49;;;;;;;;;;;18.40;46.60;;;;;;482830;246;1237;-45
2021/05/11 10:47:30;;;;;;;;;;;19.50;43.90;;;;;;483272;246;1188;-46
2021/05/11 10:49:32;;;;;;;;;;;19.50;43.70;;;;;;478656;246;5246;-46
2021/05/11 10:51:33;;;;;;;;;;;19.60;43.70;;;;;;468596;253;1447;-46
2021/05/11 10:53:34;;;;;;;;;;;19.60;43.50;;;;;;468466;253;1180;-46
2021/05/11 10:55:39;;;;;;;;;;;19.70;43.40;;;;;;468424;253;2153;-46
2021/05/11 10:57:42;;;;;;;;;;;19.70;43.20;;;;;;468187;254;2202;-46
2021/05/11 11:00:00;;;;;;;;;;;19.80;43.20;;;;;;468123;254;1227;-46
2021/05/11 11:01:59;;;;;;;;;;;19.80;43.10;;;;;;468360;254;1347;-46
2021/05/11 11:03:59;;;;;;;;;;;19.80;43.00;;;;;;468864;254;2084;-46
2021/05/11 11:06:00;;;;;;;;;;;19.90;43.00;;;;;;468605;253;1224;-46
2021/05/11 11:08:02;;;;;;;;;;;19.90;42.90;;;;;;469342;253;1200;-46
2021/05/11 11:10:04;;;;;;;;;;;19.90;42.80;;;;;;469055;253;1229;-46
2021/05/11 11:12:04;;;;;;;;;;;20.00;42.80;;;;;;468724;254;1846;-46
2021/05/11 11:14:05;;;;;;;;;;;20.00;42.80;;;;;;468504;253;1093;-46
2021/05/11 11:16:07;;;;;;;;;;;20.00;42.70;;;;;;468460;253;2196;-46
2021/05/11 11:18:08;;;;;;;;;;;20.00;42.70;;;;;;469330;253;1239;-46
2021/05/11 11:20:11;;;;;;;;;;;20.10;42.60;;;;;;468740;253;1152;-46
2021/05/11 11:24:31;;;;;;;;;;;20.10;42.50;;;;;;468348;254;1234;-46
2021/05/11 11:26:32;;;;;;;;;;;20.20;42.50;;;;;;468265;253;1370;-46
2021/05/11 11:28:33;;;;;;;;;;;20.20;42.50;;;;;;468666;253;1124;-46
2021/05/11 11:30:34;;;;;;;;;;;20.20;42.50;;;;;;468701;253;1169;-46
2021/05/11 11:32:36;;;;;;;;;;;20.10;42.40;;;;;;468687;253;1358;-46
2021/05/11 11:34:39;;;;;;;;;;;20.20;42.40;;;;;;468695;253;2156;-46
2021/05/11 11:36:38;;;;;;;;;;;20.20;42.30;;;;;;468560;254;2082;-45
2021/05/11 11:38:40;;;;;;;;;;;20.30;42.40;;;;;;468522;253;1105;-46
2021/05/11 11:40:41;;;;;;;;;;;20.30;42.40;;;;;;468553;253;1164;-46
2021/05/11 11:42:42;;;;;;;;;;;20.30;42.30;;;;;;468712;253;1346;-46
2021/05/11 11:44:43;;;;;;;;;;;20.30;42.20;;;;;;468813;253;910;-46
2021/05/11 11:46:45;;;;;;;;;;;20.30;42.20;;;;;;469247;253;1119;-46
2021/05/11 11:48:46;;;;;;;;;;;20.40;42.20;;;;;;468668;253;1128;-46
2021/05/11 11:50:48;;;;;;;;;;;20.40;42.20;;;;;;468490;253;1481;-44
2021/05/11 11:52:59;;;;;;;;;;;20.40;42.10;;;;;;468815;253;1159;-44
2021/05/11 11:55:08;;;;;;;;;;;20.40;42.20;;;;;;467924;254;2196;-44
2021/05/11 11:59:20;;;;;;;;;;;20.40;42.10;;;;;;468521;254;1129;-44
2021/05/11 12:01:21;;;;;;;;;;;20.40;42.20;;;;;;468313;253;1663;-44
2021/05/11 12:03:24;;;;;;;;;;;20.50;41.90;;;;;;468276;253;1172;-44
2021/05/11 12:05:24;;;;;;;;;;;20.10;42.60;;;;;;468202;253;2204;-46
2021/05/11 12:07:25;;;;;;;;;;;19.70;43.80;;;;;;468640;253;1203;-46
2021/05/11 12:09:26;;;;;;;;;;;19.20;44.70;;;;;;469081;254;1267;-46
2021/05/11 12:11:28;;;;;;;;;;;19.00;45.40;;;;;;468795;253;1172;-46
2021/05/11 12:13:29;;;;;;;;;;;18.80;45.80;;;;;;468346;253;1142;-46
2021/05/11 12:15:30;;;;;;;;;;;18.70;46.00;;;;;;468276;253;2216;-46
2021/05/11 12:17:32;;;;;;;;;;;18.60;46.30;;;;;;468102;253;1287;-46
2021/05/11 12:19:33;;;;;;;;;;;18.50;46.60;;;;;;468357;253;1162;-46
2021/05/11 12:21:34;;;;;;;;;;;18.50;46.80;;;;;;468332;253;1235;-46
2021/05/11 12:23:35;;;;;;;;;;;18.50;46.80;;;;;;469030;254;1159;-46
2021/05/11 12:25:37;;;;;;;;;;;18.40;46.90;;;;;;468533;253;1133;-46
2021/05/11 12:27:38;;;;;;;;;;;18.30;47.10;;;;;;468966;253;1103;-46
2021/05/11 12:29:39;;;;;;;;;;;18.20;47.30;;;;;;468694;253;909;-46
2021/05/11 12:31:40;;;;;;;;;;;18.20;47.30;;;;;;469088;253;1243;-46
2021/05/11 12:33:42;;;;;;;;;;;18.20;47.30;;;;;;469160;253;872;-46
2021/05/11 12:35:43;;;;;;;;;;;18.20;47.50;;;;;;468784;253;2215;-46
2021/05/11 12:37:44;;;;;;;;;;;18.10;47.70;;;;;;469157;253;1159;-46
2021/05/11 12:39:49;;;;;;;;;;;18.00;47.80;;;;;;468491;253;1204;-46
2021/05/11 12:41:47;;;;;;;;;;;18.00;47.90;;;;;;468320;253;2202;-46
2021/05/11 12:43:49;;;;;;;;;;;18.00;48.00;;;;;;468213;254;1351;-46
2021/05/11 12:45:49;;;;;;;;;;;18.00;48.00;;;;;;468533;253;1249;-46
2021/05/11 12:47:53;;;;;;;;;;;18.00;48.10;;;;;;468719;253;1303;-46
2021/05/11 12:49:55;;;;;;;;;;;18.00;47.90;;;;;;468412;254;2125;-46
2021/05/11 12:51:54;;;;;;;;;;;18.00;47.80;;;;;;468600;253;1295;-46
2021/05/11 12:53:56;;;;;;;;;;;18.00;48.00;;;;;;469316;253;944;-46
2021/05/11 12:56:07;;;;;;;;;;;17.90;48.10;;;;;;469001;253;2207;-46
2021/05/11 12:58:21;;;;;;;;;;;17.90;48.10;;;;;;468371;254;2048;-46
2021/05/11 13:00:12;;;;;;;;;;;17.90;48.20;;;;;;467737;254;2106;-46
2021/05/11 13:02:20;;;;;;;;;;;17.90;48.20;;;;;;468602;254;1994;-46
2021/05/11 13:04:49;;;;;;;;;;;17.90;48.20;;;;;;468290;254;1837;-46
2021/05/11 13:13:44;;;;;;;;;;;17.80;48.40;;;;;;468695;254;1104;-46
2021/05/11 13:15:56;;;;;;;;;;;17.80;48.30;;;;;;468186;254;2232;-46
2021/05/11 13:20:17;;;;;;;;;;;17.80;48.30;;;;;;468529;254;1248;-46
2021/05/11 13:22:34;;;;;;;;;;;17.70;48.50;;;;;;468292;254;1677;-46
2021/05/11 13:26:53;;;;;;;;;;;17.70;48.50;;;;;;468765;254;1181;-45
2021/05/11 13:28:55;;;;;;;;;;;17.70;48.60;;;;;;468381;254;2023;-46
2021/05/11 13:30:57;;;;;;;;;;;17.70;48.50;;;;;;468376;254;2124;-46
2021/05/11 13:33:03;;;;;;;;;;;17.70;48.40;;;;;;468375;254;1350;-46
2021/05/11 13:34:58;;;;;;;;;;;17.80;48.50;;;;;;468211;254;1805;-46
2021/05/11 13:37:01;;;;;;;;;;;17.70;48.40;;;;;;468554;253;2195;-45
2021/05/11 13:39:03;;;;;;;;;;;17.70;48.50;;;;;;468505;253;1326;-46
2021/05/11 13:41:04;;;;;;;;;;;17.70;48.50;;;;;;468344;253;1991;-46
2021/05/11 13:43:05;;;;;;;;;;;17.70;48.50;;;;;;468546;253;1111;-46
2021/05/11 13:45:06;;;;;;;;;;;17.60;48.60;;;;;;468579;253;1337;-46
2021/05/11 13:47:07;;;;;;;;;;;17.60;48.60;;;;;;468487;253;1328;-46
2021/05/11 13:49:09;;;;;;;;;;;17.60;48.60;;;;;;468627;253;1168;-46
2021/05/11 13:51:14;;;;;;;;;;;17.70;48.50;;;;;;468507;253;1157;-46
2021/05/11 13:53:13;;;;;;;;;;;17.60;48.50;;;;;;468695;254;1532;-46
2021/05/11 13:55:20;;;;;;;;;;;17.60;48.50;;;;;;468738;253;1157;-46
2021/05/11 13:57:23;;;;;;;;;;;17.60;48.60;;;;;;467911;254;2236;-46
2021/05/11 14:01:57;;;;;;;;;;;17.70;48.60;;;;;;468604;254;1307;-46
2021/05/11 14:03:51;;;;;;;;;;;17.60;48.60;;;;;;468322;254;2097;-46
2021/05/11 14:05:52;;;;;;;;;;;17.60;48.50;;;;;;468830;253;1274;-46
2021/05/11 14:07:53;;;;;;;;;;;17.60;48.60;;;;;;468618;253;1181;-46
2021/05/11 14:09:54;;;;;;;;;;;17.60;48.70;;;;;;468468;253;1112;-46
2021/05/11 14:11:56;;;;;;;;;;;17.60;48.70;;;;;;468611;253;1262;-46
2021/05/11 14:13:57;;;;;;;;;;;17.60;48.60;;;;;;468567;253;1180;-46
2021/05/11 14:15:58;;;;;;;;;;;17.60;48.60;;;;;;468497;253;2211;-46
2021/05/11 14:17:59;;;;;;;;;;;17.60;48.70;;;;;;468571;253;1219;-46
2021/05/11 14:20:01;;;;;;;;;;;17.60;48.50;;;;;;468463;253;1345;-46
2021/05/11 14:22:02;;;;;;;;;;;17.60;48.70;;;;;;468665;253;1204;-46
2021/05/11 14:24:03;;;;;;;;;;;17.60;48.70;;;;;;468849;249;1338;-46
2021/05/11 14:26:05;;;;;;;;;;;17.60;48.50;;;;;;468501;253;1449;-46
2021/05/11 14:28:06;;;;;;;;;;;17.60;48.70;;;;;;468630;253;1240;-46
2021/05/11 14:30:07;;;;;;;;;;;17.60;48.70;;;;;;468639;253;1119;-46
2021/05/11 14:32:09;;;;;;;;;;;17.50;48.80;;;;;;468789;253;1377;-46
2021/05/11 14:34:10;;;;;;;;;;;17.50;48.70;;;;;;468806;253;1175;-46
2021/05/11 14:36:11;;;;;;;;;;;17.60;48.70;;;;;;468784;253;2219;-46
2021/05/11 14:38:12;;;;;;;;;;;17.50;48.70;;;;;;468873;253;1217;-46
2021/05/11 14:40:14;;;;;;;;;;;17.50;48.80;;;;;;468888;253;1207;-46
2021/05/11 14:42:15;;;;;;;;;;;17.50;48.80;;;;;;468582;253;1382;-46
2021/05/11 14:44:17;;;;;;;;;;;17.40;48.90;;;;;;468677;253;1085;-46
2021/05/11 14:46:19;;;;;;;;;;;17.50;49.00;;;;;;468734;253;1111;-46
2021/05/11 14:48:20;;;;;;;;;;;17.40;48.90;;;;;;468755;253;1097;-46
2021/05/11 14:50:21;;;;;;;;;;;17.60;48.90;;;;;;468872;253;1134;-46
2021/05/11 14:52:23;;;;;;;;;;;17.50;48.70;;;;;;468824;253;1299;-46
2021/05/11 14:54:26;;;;;;;;;;;17.50;48.70;;;;;;468577;253;1103;-46
2021/05/11 14:56:28;;;;;;;;;;;17.50;48.80;;;;;;468613;253;2207;-45
2021/05/11 14:58:29;;;;;;;;;;;17.50;48.60;;;;;;468573;253;1818;-45
2021/05/11 15:00:30;;;;;;;;;;;17.60;48.70;;;;;;468751;253;1118;-46
2021/05/11 15:02:32;;;;;;;;;;;17.50;48.70;;;;;;468819;253;1108;-46
2021/05/11 15:04:33;;;;;;;;;;;17.50;48.80;;;;;;468428;254;1893;-46
2021/05/11 15:06:35;;;;;;;;;;;17.50;48.80;;;;;;468705;253;1159;-46